Time;durP1;ratioP1;P1;durP2;ratioP2;P2;SDS_P1;SDS_P2;PMS_P1;PMS_P2;Temp;Humidity;BMP_temperature;BMP_pressure;BME280_temperature;BME280_humidity;BME280_pressure;Samples;Min_cycle;Max_cycle;Signal;HPM_P1;HPM_P2
2021/09/17 00:00:31;;;;;;;9.73;4.93;;;;;;;12.23;100.00;98717.28;5023499;28;20025;-66
2021/09/17 00:02:57;;;;;;;11.45;4.57;;;;;;;12.23;100.00;98712.00;5023393;28;20130;-66
2021/09/17 00:05:22;;;;;;;14.15;4.57;;;;;;;12.24;100.00;98709.34;5023541;28;20059;-66
2021/09/17 00:07:48;;;;;;;5.53;4.28;;;;;;;12.23;100.00;98712.88;5022995;28;20203;-66
2021/09/17 00:10:13;;;;;;;16.38;4.60;;;;;;;12.34;100.00;98716.13;5023366;28;20335;-66
2021/09/17 00:12:41;;;;;;;54.97;6.07;;;;;;;12.34;100.00;98710.00;5023854;28;20090;-66
2021/09/17 00:15:07;;;;;;;36.42;6.00;;;;;;;12.38;100.00;98704.59;5023325;28;20025;-66
2021/09/17 00:17:34;;;;;;;26.23;4.70;;;;;;;12.47;100.00;98706.97;5023154;28;20237;-66
2021/09/17 00:19:59;;;;;;;56.17;4.25;;;;;;;12.40;100.00;98700.13;5023586;28;20022;-66
2021/09/17 00:22:24;;;;;;;38.90;6.03;;;;;;;12.38;100.00;98704.59;5023182;28;20205;-66
2021/09/17 00:24:50;;;;;;;35.10;4.68;;;;;;;12.39;100.00;98700.16;5023209;28;20029;-66
2021/09/17 00:27:15;;;;;;;27.80;4.63;;;;;;;12.43;100.00;98705.31;5005381;28;20014;-66
2021/09/17 00:29:41;;;;;;;10.43;4.53;;;;;;;12.47;100.00;98701.69;5022321;28;20253;-66
2021/09/17 00:32:07;;;;;;;12.10;4.60;;;;;;;12.50;100.00;98698.97;5023040;28;20029;-66
2021/09/17 00:34:32;;;;;;;27.90;4.95;;;;;;;12.47;100.00;98699.06;5023100;28;20056;-66
2021/09/17 00:36:57;;;;;;;9.60;4.40;;;;;;;12.45;100.00;98692.97;5023327;28;20030;-66
2021/09/17 00:39:23;;;;;;;37.70;4.75;;;;;;;12.49;100.00;98705.19;5022990;28;20022;-66
2021/09/17 00:41:48;;;;;;;93.07;7.40;;;;;;;12.43;100.00;98707.97;5023251;28;20333;-66
2021/09/17 00:44:25;;;;;;;76.88;6.78;;;;;;;12.35;100.00;98704.66;5023229;28;20025;-66
2021/09/17 00:46:51;;;;;;;46.22;5.53;;;;;;;12.43;100.00;98699.16;5023179;28;20213;-66
2021/09/17 00:49:17;;;;;;;83.85;6.38;;;;;;;12.37;100.00;98700.19;5022925;28;20025;-66
2021/09/17 00:51:43;;;;;;;24.73;4.35;;;;;;;12.30;100.00;98693.34;5025399;28;20026;-66
2021/09/17 00:54:09;;;;;;;26.90;4.60;;;;;;;12.28;100.00;98689.03;5026788;28;20030;-66
2021/09/17 00:56:34;;;;;;;16.75;4.22;;;;;;;12.20;100.00;98691.84;5026832;28;20069;-66
2021/09/17 00:59:00;;;;;;;38.83;4.75;;;;;;;12.16;100.00;98684.94;5026865;28;20068;-66
2021/09/17 01:01:25;;;;;;;12.93;4.05;;;;;;;12.19;100.00;98684.84;5009334;28;20213;-67
2021/09/17 01:03:51;;;;;;;16.10;3.58;;;;;;;12.19;100.00;98684.84;5026752;28;20029;-67
2021/09/17 01:06:17;;;;;;;15.63;3.70;;;;;;;12.11;100.00;98686.78;5026543;28;20245;-67
2021/09/17 01:08:42;;;;;;;15.05;4.18;;;;;;;12.12;100.00;98677.97;5026518;28;20025;-67
2021/09/17 01:11:08;;;;;;;6.07;3.63;;;;;;;12.09;100.00;98672.75;5026654;28;20026;-67
2021/09/17 01:13:34;;;;;;;13.18;4.15;;;;;;;12.03;100.00;98678.22;5026522;28;20029;-67
2021/09/17 01:16:00;;;;;;;8.20;3.60;;;;;;;11.98;100.00;98671.28;5026275;28;20089;-67
2021/09/17 01:18:27;;;;;;;6.28;3.13;;;;;;;11.91;100.00;98678.50;5026484;28;20018;-67
2021/09/17 01:20:57;;;;;;;8.05;3.13;;;;;;;11.82;100.00;98673.44;5026270;28;20018;-67
2021/09/17 01:23:22;;;;;;;16.02;3.53;;;;;;;11.70;100.00;98668.44;5026377;28;20024;-67
2021/09/17 01:25:48;;;;;;;6.72;3.20;;;;;;;11.74;100.00;98664.00;5026259;28;20049;-67
2021/09/17 01:28:13;;;;;;;6.07;3.05;;;;;;;11.71;100.00;98659.63;5026041;28;20210;-67
2021/09/17 01:30:39;;;;;;;3.97;3.13;;;;;;;11.70;100.00;98662.31;5026030;28;20025;-67
2021/09/17 01:33:04;;;;;;;14.45;3.63;;;;;;;11.66;100.00;98663.28;5008689;28;20140;-67
2021/09/17 01:35:30;;;;;;;11.38;3.50;;;;;;;11.60;100.00;98656.34;5025805;28;20249;-67
2021/09/17 01:37:55;;;;;;;10.65;3.42;;;;;;;11.62;100.00;98657.22;5026520;28;20060;-67
2021/09/17 01:40:21;;;;;;;5.45;3.60;;;;;;;11.57;100.00;98653.78;5025738;28;20329;-67
2021/09/17 01:42:46;;;;;;;13.60;3.20;;;;;;;11.53;100.00;98654.78;5026249;28;20018;-67
2021/09/17 01:45:14;;;;;;;11.02;3.60;;;;;;;11.43;100.00;98653.25;5025754;28;20245;-67
2021/09/17 01:47:39;;;;;;;19.98;2.60;;;;;;;11.46;100.00;98660.22;5025581;28;20025;-67
2021/09/17 01:50:07;;;;;;;6.68;2.78;;;;;;;11.47;100.00;98654.91;5025922;28;20113;-67
2021/09/17 01:52:32;;;;;;;25.13;3.20;;;;;;;11.39;100.00;98646.28;5025528;28;20013;-67
2021/09/17 01:54:57;;;;;;;11.40;2.88;;;;;;;11.42;100.00;98646.22;5025815;28;20313;-67
2021/09/17 01:57:23;;;;;;;14.27;2.50;;;;;;;11.45;100.00;98651.44;5025907;28;20052;-67
2021/09/17 01:59:48;;;;;;;5.25;2.45;;;;;;;11.42;100.00;98640.09;5025453;28;20027;-67
2021/09/17 02:02:14;;;;;;;16.45;2.45;;;;;;;11.38;100.00;98633.16;5025294;28;20022;-67
2021/09/17 02:04:39;;;;;;;14.25;2.72;;;;;;;11.27;100.00;98636.03;5025226;28;20055;-67
2021/09/17 02:07:04;;;;;;;3.55;2.55;;;;;;;11.22;100.00;98637.91;5025519;28;20038;-67
2021/09/17 02:09:30;;;;;;;11.13;2.40;;;;;;;11.22;100.00;98632.63;5025587;28;20358;-67
2021/09/17 02:11:55;;;;;;;3.95;2.63;;;;;;;11.15;100.00;98641.56;5025168;28;20030;-67
2021/09/17 02:14:20;;;;;;;4.53;2.00;;;;;;;11.15;100.00;98641.56;5025268;28;20014;-67
2021/09/17 02:16:46;;;;;;;5.63;2.17;;;;;;;11.16;100.00;98642.41;5025174;28;20022;-67
2021/09/17 02:19:11;;;;;;;3.90;2.65;;;;;;;11.11;100.00;98639.91;5023876;28;20013;-67
2021/09/17 02:21:39;;;;;;;13.13;2.85;;;;;;;11.14;100.00;98645.13;5025304;28;20024;-67
2021/09/17 02:24:05;;;;;;;42.20;3.08;;;;;;;11.02;100.00;98645.38;5025163;28;20018;-67
2021/09/17 02:26:31;;;;;;;13.43;2.28;;;;;;;10.99;100.00;98645.44;5025297;28;20089;-67
2021/09/17 02:28:56;;;;;;;11.63;2.20;;;;;;;11.03;100.00;98649.72;5024799;28;20263;-67
2021/09/17 02:31:22;;;;;;;3.35;2.10;;;;;;;11.07;100.00;98643.50;5025043;28;20057;-67
2021/09/17 02:33:47;;;;;;;3.92;2.00;;;;;;;11.07;100.00;98643.50;5024898;28;20144;-67
2021/09/17 02:36:13;;;;;;;9.40;1.95;;;;;;;11.06;100.00;98649.66;5025665;28;20025;-67
2021/09/17 02:38:38;;;;;;;11.25;2.38;;;;;;;11.04;100.00;98638.28;5026023;28;20213;-67
2021/09/17 02:41:04;;;;;;;23.65;2.30;;;;;;;11.05;100.00;98634.78;5026437;28;20026;-67
2021/09/17 02:43:29;;;;;;;24.65;2.60;;;;;;;11.04;100.00;98637.44;5026127;28;20025;-67
2021/09/17 02:45:55;;;;;;;2.28;1.70;;;;;;;11.06;100.00;98636.50;5026003;28;20048;-67
2021/09/17 02:48:20;;;;;;;16.85;2.22;;;;;;;11.11;100.00;98639.03;5019639;28;20045;-67
2021/09/17 02:50:46;;;;;;;8.07;2.70;;;;;;;11.02;100.00;98641.84;5024703;28;20252;-67
2021/09/17 02:53:11;;;;;;;9.35;2.80;;;;;;;10.94;100.00;98642.00;5006895;28;20344;-67
2021/09/17 02:55:37;;;;;;;10.68;2.55;;;;;;;11.03;100.00;98647.09;5024684;28;20029;-66
2021/09/17 02:58:03;;;;;;;15.48;2.40;;;;;;;11.01;100.00;98642.78;5024523;28;20060;-66
2021/09/17 03:00:30;;;;;;;9.90;2.33;;;;;;;10.99;100.00;98645.44;5024575;28;20021;-66
2021/09/17 03:02:55;;;;;;;4.28;1.98;;;;;;;10.97;100.00;98638.47;5024131;28;20021;-66
2021/09/17 03:05:21;;;;;;;10.15;2.08;;;;;;;10.92;100.00;98639.41;5024558;28;20129;-66
2021/09/17 03:07:46;;;;;;;19.02;2.40;;;;;;;10.84;100.00;98637.84;5024007;28;20044;-66
2021/09/17 03:10:12;;;;;;;21.20;2.33;;;;;;;10.85;100.00;98636.94;5024463;28;20045;-66
2021/09/17 03:12:37;;;;;;;26.42;2.75;;;;;;;10.86;100.00;98633.41;5024107;28;20029;-66
2021/09/17 03:15:03;;;;;;;9.68;2.80;;;;;;;10.90;100.00;98640.34;5023651;28;20025;-66
2021/09/17 03:17:28;;;;;;;4.82;2.67;;;;;;;10.86;100.00;98626.38;5024067;28;20341;-66
2021/09/17 03:19:54;;;;;;;11.43;2.70;;;;;;;10.82;100.00;98627.34;5024347;28;20020;-66
2021/09/17 03:22:19;;;;;;;8.30;2.38;;;;;;;10.73;100.00;98631.94;5024193;28;20213;-66
2021/09/17 03:24:44;;;;;;;6.10;2.42;;;;;;;10.77;100.00;98625.69;5023959;28;20404;-66
2021/09/17 03:27:10;;;;;;;6.47;2.95;;;;;;;10.84;100.00;98629.94;5024161;28;20133;-66
2021/09/17 03:29:35;;;;;;;6.68;2.15;;;;;;;10.89;100.00;98622.81;5023820;28;20025;-66
2021/09/17 03:32:01;;;;;;;4.20;2.80;;;;;;;10.86;100.00;98629.00;5024080;28;20053;-66
2021/09/17 03:34:26;;;;;;;5.13;2.78;;;;;;;10.87;100.00;98624.63;5023989;28;20022;-66
2021/09/17 03:36:51;;;;;;;9.55;2.75;;;;;;;10.82;100.00;98626.47;5023951;28;20025;-66
2021/09/17 03:39:17;;;;;;;5.30;2.53;;;;;;;10.81;100.00;98624.72;5023859;28;20022;-66
2021/09/17 03:41:45;;;;;;;7.78;2.65;;;;;;;10.80;100.00;98628.28;5023614;28;20022;-66
2021/09/17 03:44:12;;;;;;;5.45;3.00;;;;;;;10.81;100.00;98624.72;5023838;28;20028;-66
2021/09/17 03:46:38;;;;;;;3.08;2.25;;;;;;;10.73;100.00;98621.41;5023895;28;20053;-66
2021/09/17 03:49:03;;;;;;;2.55;2.13;;;;;;;10.79;100.00;98613.38;5023585;28;20367;-66
2021/09/17 03:51:29;;;;;;;14.40;2.17;;;;;;;10.81;100.00;98619.47;5023683;28;20073;-66
2021/09/17 03:53:54;;;;;;;11.82;2.03;;;;;;;10.78;100.00;98624.78;5023498;28;20024;-66
2021/09/17 03:56:19;;;;;;;7.47;2.10;;;;;;;10.77;100.00;98620.44;5023672;28;20045;-66
2021/09/17 03:58:45;;;;;;;2.90;2.00;;;;;;;10.70;100.00;98611.78;5023565;28;20384;-66
2021/09/17 04:01:10;;;;;;;10.45;2.00;;;;;;;10.72;100.00;98611.75;5023563;28;20021;-66
2021/09/17 04:03:35;;;;;;;19.77;2.47;;;;;;;10.72;100.00;98611.75;5023152;28;20017;-66
2021/09/17 04:06:01;;;;;;;8.65;2.53;;;;;;;10.69;100.00;98614.44;5005712;28;20049;-66
2021/09/17 04:08:26;;;;;;;7.40;2.13;;;;;;;10.71;100.00;98602.13;5023498;28;20065;-66
2021/09/17 04:10:53;;;;;;;8.43;2.13;;;;;;;10.71;100.00;98605.63;5023199;28;20045;-66
2021/09/17 04:13:18;;;;;;;7.30;2.25;;;;;;;10.71;100.00;98610.03;5021856;28;20085;-66
2021/09/17 04:15:43;;;;;;;9.57;2.25;;;;;;;10.69;100.00;98604.78;5022412;28;20256;-66
2021/09/17 04:18:09;;;;;;;4.28;2.40;;;;;;;10.72;100.00;98610.00;5022524;28;20021;-66
2021/09/17 04:20:35;;;;;;;9.93;2.50;;;;;;;10.76;100.00;98608.19;5022496;28;20073;-66
2021/09/17 04:23:01;;;;;;;3.53;2.45;;;;;;;10.77;100.00;98612.53;5022342;28;20022;-66
2021/09/17 04:25:28;;;;;;;16.73;2.72;;;;;;;10.77;100.00;98617.81;5023924;28;20024;-66
2021/09/17 04:27:53;;;;;;;47.67;4.57;;;;;;;10.52;100.00;98617.44;5026283;28;20021;-66
2021/09/17 04:30:18;;;;;;;5.82;1.95;;;;;;;10.45;100.00;98610.53;5026187;28;20081;-66
2021/09/17 04:32:44;;;;;;;10.60;2.50;;;;;;;10.58;100.00;98616.44;5026372;28;20465;-66
2021/09/17 04:35:11;;;;;;;7.70;2.35;;;;;;;10.61;100.00;98616.38;5026505;28;20321;-66
2021/09/17 04:37:44;;;;;;;18.52;2.50;;;;;;;10.63;100.00;98611.94;5026104;28;20085;-66
2021/09/17 04:40:11;;;;;;;8.23;2.45;;;;;;;10.70;100.00;98610.94;5027359;28;20060;-66
2021/09/17 04:42:37;;;;;;;8.90;2.88;;;;;;;10.71;100.00;98607.41;5027714;28;20017;-66
2021/09/17 04:45:03;;;;;;;32.83;3.10;;;;;;;10.66;100.00;98609.25;5027908;28;20033;-66
2021/09/17 04:47:29;;;;;;;7.28;2.10;;;;;;;10.76;100.00;98609.03;5027620;28;20344;-66
2021/09/17 04:49:54;;;;;;;9.20;2.00;;;;;;;10.78;100.00;98609.00;5027514;28;20026;-66
2021/09/17 04:52:21;;;;;;;10.85;2.95;;;;;;;10.67;100.00;98611.00;5027478;28;20124;-66
2021/09/17 04:54:47;;;;;;;8.32;2.42;;;;;;;10.71;100.00;98612.66;5027494;28;20080;-66
2021/09/17 04:57:13;;;;;;;10.52;2.30;;;;;;;10.68;100.00;98610.97;5027434;28;20317;-66
2021/09/17 04:59:38;;;;;;;13.90;2.80;;;;;;;10.74;100.00;98610.84;5027351;28;20020;-66
2021/09/17 05:02:04;;;;;;;22.48;2.40;;;;;;;10.62;100.00;98613.72;5027381;28;20018;-66
2021/09/17 05:04:29;;;;;;;24.55;3.90;;;;;;;10.63;100.00;98607.53;5027231;28;20021;-66
2021/09/17 05:06:55;;;;;;;9.90;2.22;;;;;;;10.67;100.00;98603.94;5027060;28;20349;-66
2021/09/17 05:09:20;;;;;;;5.93;2.60;;;;;;;10.67;100.00;98611.84;5027102;28;20028;-66
2021/09/17 05:11:45;;;;;;;7.95;2.30;;;;;;;10.73;100.00;98616.16;5027128;28;20244;-66
2021/09/17 05:14:11;;;;;;;3.92;2.40;;;;;;;10.76;100.00;98614.28;5027117;28;20033;-66
2021/09/17 05:16:37;;;;;;;11.45;2.38;;;;;;;10.72;100.00;98619.66;5009534;28;20018;-66
2021/09/17 05:19:03;;;;;;;12.45;2.95;;;;;;;10.73;100.00;98610.88;5027016;28;20276;-66
2021/09/17 05:21:28;;;;;;;12.90;2.17;;;;;;;10.72;100.00;98619.66;5026960;28;20029;-66
2021/09/17 05:23:54;;;;;;;11.75;2.50;;;;;;;10.73;99.97;98618.78;5026902;28;20049;-66
2021/09/17 05:26:19;;;;;;;5.32;2.95;;;;;;;10.60;100.00;98612.03;5026887;28;20028;-66
2021/09/17 05:28:45;;;;;;;6.13;2.30;;;;;;;10.64;100.00;98621.59;5026828;28;20017;-66
2021/09/17 05:31:10;;;;;;;5.57;2.95;;;;;;;10.76;100.00;98621.34;5026816;28;20088;-66
2021/09/17 05:33:35;;;;;;;5.13;3.33;;;;;;;10.74;100.00;98628.41;5026596;28;20022;-66
2021/09/17 05:36:01;;;;;;;9.00;2.90;;;;;;;10.86;100.00;98623.72;5026302;28;20030;-66
2021/09/17 05:38:26;;;;;;;9.98;2.80;;;;;;;10.81;99.73;98614.19;5026232;28;20132;-66
2021/09/17 05:40:51;;;;;;;3.72;2.50;;;;;;;10.81;100.00;98622.09;5026607;28;20024;-66
2021/09/17 05:43:17;;;;;;;4.22;2.80;;;;;;;10.91;100.00;98626.28;5009102;28;20024;-66
2021/09/17 05:45:42;;;;;;;5.47;2.90;;;;;;;10.86;100.00;98622.88;5026525;28;20022;-66
2021/09/17 05:48:08;;;;;;;4.43;2.63;;;;;;;10.93;100.00;98613.97;5008997;28;20021;-66
2021/09/17 05:50:33;;;;;;;5.20;2.78;;;;;;;11.02;100.00;98623.41;5008891;28;20060;-66
2021/09/17 05:52:58;;;;;;;6.32;2.60;;;;;;;11.01;99.87;98617.28;5026462;28;20310;-66
2021/09/17 05:55:27;;;;;;;3.10;2.05;;;;;;;11.07;99.72;98611.88;5026345;28;20089;-66
2021/09/17 05:57:54;;;;;;;4.60;2.10;;;;;;;11.18;99.55;98609.91;5026317;28;20313;-66
2021/09/17 06:00:19;;;;;;;5.80;2.55;;;;;;;11.29;99.24;98614.94;5026256;28;20014;-66
2021/09/17 06:02:45;;;;;;;6.45;2.60;;;;;;;11.30;99.39;98614.91;5026151;28;20025;-66
2021/09/17 06:05:11;;;;;;;5.65;2.35;;;;;;;11.26;99.49;98617.63;5008640;28;20089;-66
2021/09/17 06:07:41;;;;;;;3.88;2.25;;;;;;;11.29;99.87;98613.16;5025955;28;20072;-66
2021/09/17 06:10:07;;;;;;;5.35;2.45;;;;;;;11.31;99.59;98608.72;5025926;28;20022;-66
2021/09/17 06:12:32;;;;;;;4.13;2.30;;;;;;;11.51;98.86;98619.66;5025989;28;20029;-66
2021/09/17 06:14:58;;;;;;;2.90;2.03;;;;;;;11.60;98.10;98619.44;5026038;28;20022;-66
2021/09/17 06:17:23;;;;;;;4.70;2.00;;;;;;;11.59;98.50;98615.09;5008411;28;20060;-66
2021/09/17 06:19:48;;;;;;;7.68;2.30;;;;;;;11.58;97.99;98610.69;5025868;28;20018;-66
2021/09/17 06:22:14;;;;;;;2.90;1.73;;;;;;;11.51;97.62;98617.03;5025834;28;20017;-66
2021/09/17 06:24:39;;;;;;;3.58;2.47;;;;;;;11.53;98.30;98609.97;5025819;28;20017;-66
2021/09/17 06:27:05;;;;;;;3.65;2.42;;;;;;;11.63;99.04;98611.50;5025769;28;20021;-66
2021/09/17 06:29:30;;;;;;;5.00;2.22;;;;;;;11.73;98.98;98615.66;5025724;28;20093;-66
2021/09/17 06:31:55;;;;;;;7.75;2.80;;;;;;;11.78;97.96;98612.91;5025666;28;20321;-66
2021/09/17 06:34:21;;;;;;;4.15;2.50;;;;;;;11.91;97.81;98619.59;5025621;28;20025;-66
2021/09/17 06:36:46;;;;;;;3.38;1.95;;;;;;;11.99;97.50;98617.66;5025585;28;20085;-66
2021/09/17 06:39:12;;;;;;;5.35;2.75;;;;;;;11.95;97.42;98622.13;5025544;28;20304;-66
2021/09/17 06:41:37;;;;;;;4.82;2.67;;;;;;;11.85;98.41;98620.63;5025491;28;20017;-66
2021/09/17 06:44:03;;;;;;;4.47;2.67;;;;;;;11.94;98.90;98614.25;5025493;28;20025;-66
2021/09/17 06:46:28;;;;;;;4.93;2.70;;;;;;;12.16;99.10;98615.44;5025414;28;20018;-66
2021/09/17 06:48:54;;;;;;;5.07;2.70;;;;;;;12.27;99.14;98614.25;5025269;28;20087;-66
2021/09/17 06:51:19;;;;;;;4.32;2.70;;;;;;;12.46;99.14;98604.06;5025319;28;20156;-66
2021/09/17 06:53:44;;;;;;;3.40;2.22;;;;;;;12.54;97.49;98610.88;5025264;28;20067;-66
2021/09/17 06:56:11;;;;;;;3.83;2.47;;;;;;;12.66;97.10;98614.97;5025219;28;20098;-66
2021/09/17 06:58:38;;;;;;;5.18;2.63;;;;;;;12.70;96.49;98613.97;5025167;28;20279;-66
2021/09/17 07:01:03;;;;;;;2.92;1.95;;;;;;;12.92;96.71;98602.72;5025109;28;20217;-66
2021/09/17 07:03:29;;;;;;;4.22;2.95;;;;;;;13.12;95.95;98601.31;5024989;28;20041;-66
2021/09/17 07:05:55;;;;;;;4.47;2.72;;;;;;;13.09;96.55;98601.41;5025040;28;20029;-66
2021/09/17 07:08:21;;;;;;;4.72;2.38;;;;;;;13.37;95.52;98602.28;5024790;28;20113;-66
2021/09/17 07:10:48;;;;;;;5.85;2.67;;;;;;;13.38;94.93;98593.47;5007542;28;20075;-66
2021/09/17 07:13:13;;;;;;;6.78;2.90;;;;;;;13.34;96.19;98602.38;5024926;28;20093;-66
2021/09/17 07:15:39;;;;;;;6.97;2.78;;;;;;;13.51;95.64;98605.38;5007329;28;20018;-66
2021/09/17 07:18:05;;;;;;;4.55;2.88;;;;;;;13.63;94.61;98604.97;5024828;28;20041;-66
2021/09/17 07:20:32;;;;;;;4.38;3.03;;;;;;;13.53;95.55;98603.53;5024790;28;20026;-66
2021/09/17 07:22:57;;;;;;;6.53;3.47;;;;;;;13.54;95.54;98603.50;5024737;28;20052;-66
2021/09/17 07:25:23;;;;;;;6.28;3.17;;;;;;;13.70;95.56;98607.38;5024747;28;20313;-66
2021/09/17 07:27:48;;;;;;;6.57;3.35;;;;;;;13.84;95.16;98609.59;5024672;28;20025;-66
2021/09/17 07:30:15;;;;;;;6.75;4.53;;;;;;;14.00;95.86;98608.16;5024549;28;20014;-66
2021/09/17 07:32:42;;;;;;;6.00;4.13;;;;;;;14.17;95.45;98609.31;5024641;28;20052;-66
2021/09/17 07:35:08;;;;;;;6.15;4.00;;;;;;;14.28;94.20;98623.13;5024534;28;20335;-66
2021/09/17 07:37:34;;;;;;;6.05;3.92;;;;;;;14.42;93.24;98614.66;5024512;28;20040;-66
2021/09/17 07:40:00;;;;;;;6.65;4.03;;;;;;;14.49;93.88;98605.63;5024458;28;20026;-66
2021/09/17 07:42:25;;;;;;;6.88;4.35;;;;;;;14.56;93.38;98607.97;5024411;28;20025;-66
2021/09/17 07:44:50;;;;;;;7.65;4.65;;;;;;;14.70;94.06;98607.47;5006864;28;20021;-66
2021/09/17 07:47:16;;;;;;;8.70;4.78;;;;;;;14.69;93.09;98600.47;5024374;28;20031;-66
2021/09/17 07:49:42;;;;;;;12.60;5.45;;;;;;;14.67;93.45;98599.66;5024262;28;20221;-66
2021/09/17 07:52:08;;;;;;;7.50;4.35;;;;;;;14.91;94.48;98598.75;5024323;28;20028;-66
2021/09/17 07:54:33;;;;;;;9.85;5.25;;;;;;;14.85;92.99;98604.28;5006727;28;20375;-66
2021/09/17 07:56:58;;;;;;;7.68;4.40;;;;;;;15.06;92.56;98591.09;5024243;28;20309;-66
2021/09/17 07:59:24;;;;;;;10.82;4.72;;;;;;;15.29;92.00;98592.88;5023824;28;20044;-66
2021/09/17 08:01:49;;;;;;;7.55;4.65;;;;;;;15.26;91.41;98593.00;5024152;28;20018;-65
2021/09/17 08:04:15;;;;;;;5.72;3.58;;;;;;;15.49;90.57;98592.97;5024331;28;20029;-65
2021/09/17 08:06:40;;;;;;;7.85;4.97;;;;;;;15.57;91.59;98596.22;5023973;28;20034;-65
2021/09/17 08:09:09;;;;;;;7.22;4.43;;;;;;;15.81;91.50;98600.50;5024058;28;20033;-65
2021/09/17 08:11:35;;;;;;;6.30;4.13;;;;;;;16.03;90.40;98600.47;5024065;28;20022;-65
2021/09/17 08:14:00;;;;;;;7.45;4.82;;;;;;;16.20;90.92;98600.66;5024108;28;20364;-65
2021/09/17 08:16:26;;;;;;;8.30;4.82;;;;;;;16.29;89.55;98605.56;5024048;28;20025;-65
2021/09/17 08:18:51;;;;;;;8.80;5.13;;;;;;;16.69;87.99;98601.16;5024026;28;20021;-65
2021/09/17 08:21:17;;;;;;;10.23;5.10;;;;;;;16.78;87.40;98592.78;5023986;28;20041;-65
2021/09/17 08:23:43;;;;;;;10.18;5.35;;;;;;;16.91;88.07;98593.97;5024019;28;20238;-65
2021/09/17 08:26:09;;;;;;;9.10;5.68;;;;;;;17.04;86.16;98586.28;5023989;28;20022;-65
2021/09/17 08:28:34;;;;;;;8.18;5.35;;;;;;;17.07;87.04;98595.00;5023860;28;20213;-65
2021/09/17 08:31:02;;;;;;;6.10;4.22;;;;;;;17.28;87.14;98598.47;5023963;28;20026;-65
2021/09/17 08:33:28;;;;;;;10.23;4.82;;;;;;;17.41;86.80;98598.72;5024139;28;20089;-65
2021/09/17 08:35:53;;;;;;;9.10;4.85;;;;;;;17.49;86.66;98599.28;5023876;28;20213;-65
2021/09/17 08:38:19;;;;;;;16.17;5.30;;;;;;;17.48;88.13;98605.50;5023869;28;20213;-65
2021/09/17 08:40:44;;;;;;;12.25;4.90;;;;;;;17.74;87.08;98602.47;5023852;28;20246;-65
2021/09/17 08:43:10;;;;;;;12.48;5.57;;;;;;;17.47;87.34;98598.47;5023819;28;20024;-65
2021/09/17 08:45:35;;;;;;;9.38;5.43;;;;;;;17.60;87.56;98597.81;5023764;28;20029;-65
2021/09/17 08:48:02;;;;;;;9.63;6.00;;;;;;;17.92;87.07;98599.78;5023831;28;20036;-65
2021/09/17 08:50:28;;;;;;;8.77;5.10;;;;;;;18.11;85.50;98597.06;5023650;28;20025;-65
2021/09/17 08:52:53;;;;;;;9.10;5.43;;;;;;;18.10;85.38;98603.34;5023724;28;20021;-65
2021/09/17 08:55:19;;;;;;;8.65;5.75;;;;;;;18.17;84.93;98602.09;5023684;28;20041;-65
2021/09/17 08:57:46;;;;;;;9.43;5.57;;;;;;;18.43;84.31;98599.00;5023662;28;20018;-65
2021/09/17 09:00:32;;;;;;;9.20;5.75;;;;;;;18.69;84.72;98599.38;5023643;28;20018;-65
2021/09/17 09:02:59;;;;;;;8.18;5.80;;;;;;;18.78;84.03;98595.38;5009898;28;20037;-65
2021/09/17 09:05:25;;;;;;;9.25;5.80;;;;;;;19.00;81.63;98596.81;5006037;28;20026;-65
2021/09/17 09:07:51;;;;;;;7.95;5.90;;;;;;;19.02;78.78;98588.72;5023411;28;20080;-65
2021/09/17 09:10:16;;;;;;;8.98;5.50;;;;;;;19.09;80.28;98600.78;5023458;28;20033;-65
2021/09/17 09:12:47;;;;;;;10.38;6.70;;;;;;;18.96;81.03;98607.72;5025603;28;20238;-65
2021/09/17 09:15:18;;;;;;;11.50;5.78;;;;;;;19.17;81.39;98609.22;5027197;28;20221;-65
2021/09/17 09:17:45;;;;;;;7.13;5.47;;;;;;;19.18;78.85;98598.47;5027063;28;20022;-65
2021/09/17 09:20:23;;;;;;;12.18;6.22;;;;;;;19.31;79.65;98596.06;5027039;28;20025;-65
2021/09/17 09:23:19;;;;;;;10.57;6.15;;;;;;;19.38;78.03;98597.44;5026999;28;20340;-65
2021/09/17 09:25:55;;;;;;;10.23;5.18;;;;;;;19.52;78.00;98600.19;5026942;28;20032;-65
2021/09/17 09:28:24;;;;;;;9.20;6.10;;;;;;;19.50;77.49;98595.88;5026841;28;20026;-65
2021/09/17 09:30:51;;;;;;;13.73;6.38;;;;;;;19.47;78.03;98599.59;5026854;28;20064;-65
2021/09/17 09:33:27;;;;;;;11.40;6.35;;;;;;;19.64;77.05;98594.16;5026781;28;20030;-65
2021/09/17 09:36:04;;;;;;;12.82;6.65;;;;;;;19.77;74.12;98595.19;5026769;28;20274;-65
2021/09/17 09:38:36;;;;;;;11.07;6.55;;;;;;;19.62;74.95;98590.75;5026717;28;20021;-65
2021/09/17 09:41:04;;;;;;;8.20;5.82;;;;;;;19.89;74.85;98597.16;5026625;28;20026;-65
2021/09/17 09:43:32;;;;;;;10.88;6.63;;;;;;;19.68;76.26;98589.53;5026601;28;20022;-65
2021/09/17 09:46:18;;;;;;;12.25;6.82;;;;;;;19.68;77.21;98585.03;5026537;28;20093;-65
2021/09/17 09:48:59;;;;;;;10.27;6.47;;;;;;;19.74;77.45;98595.38;5008911;28;20040;-65
2021/09/17 09:51:30;;;;;;;13.80;6.82;;;;;;;19.57;78.43;98592.78;5026465;28;20026;-65
2021/09/17 09:53:57;;;;;;;11.52;6.88;;;;;;;19.55;78.14;98584.00;5026404;28;20026;-65
2021/09/17 09:56:23;;;;;;;12.32;7.20;;;;;;;19.68;76.82;98585.03;5026360;28;20026;-65
2021/09/17 09:58:50;;;;;;;13.80;6.50;;;;;;;19.72;77.14;98585.72;5026301;28;20022;-65
2021/09/17 10:01:21;;;;;;;12.13;7.13;;;;;;;19.70;76.13;98583.13;5026256;28;20072;-65
2021/09/17 10:03:48;;;;;;;7.55;5.55;;;;;;;19.80;76.65;98581.66;5026201;28;20029;-65
2021/09/17 10:06:14;;;;;;;8.02;5.78;;;;;;;19.95;73.53;98583.47;5026045;28;20093;-65
2021/09/17 10:08:41;;;;;;;11.50;6.15;;;;;;;19.80;72.71;98573.66;5026136;28;20022;-65
2021/09/17 10:11:07;;;;;;;10.65;6.10;;;;;;;20.01;75.61;98583.13;5026077;28;20025;-65
2021/09/17 10:13:32;;;;;;;11.85;8.30;;;;;;;19.83;75.14;98584.16;5026084;28;20336;-65
2021/09/17 10:15:58;;;;;;;11.07;7.47;;;;;;;19.67;77.28;98575.31;5026084;28;20064;-65
2021/09/17 10:18:24;;;;;;;12.20;8.80;;;;;;;19.69;76.80;98570.75;5025954;28;20270;-65
2021/09/17 10:20:50;;;;;;;13.02;8.52;;;;;;;19.58;79.14;98567.81;5025914;28;20089;-65
2021/09/17 10:23:26;;;;;;;14.32;7.15;;;;;;;19.79;76.17;98566.59;5025559;28;20112;-65
2021/09/17 10:25:58;;;;;;;12.98;6.80;;;;;;;19.92;75.91;98564.94;5025606;28;20026;-65
2021/09/17 10:28:23;;;;;;;9.52;6.20;;;;;;;20.22;73.51;98563.16;5018788;28;20021;-65
2021/09/17 10:30:48;;;;;;;12.27;5.63;;;;;;;21.53;68.48;98562.13;5025197;28;20026;-65
2021/09/17 10:33:21;;;;;;;10.55;5.65;;;;;;;21.17;67.94;98558.19;5025442;28;20021;-66
2021/09/17 10:35:47;;;;;;;;;;;;;;;21.02;67.63;98559.16;5025654;28;20268;-65
2021/09/17 10:38:29;;;;;;;11.13;5.20;;;;;;;21.14;66.57;98558.38;5024830;28;19912;-65
2021/09/17 10:41:02;;;;;;;9.30;5.17;;;;;;;22.04;64.17;98561.44;5024889;28;20297;-66
2021/09/17 10:43:41;;;;;;;7.93;5.53;;;;;;;22.16;61.11;98560.63;5024948;28;20018;-66
2021/09/17 10:46:09;;;;;;;6.95;4.72;;;;;;;21.98;61.69;98557.34;5024929;28;20265;-65
2021/09/17 10:48:40;;;;;;;11.52;6.45;;;;;;;21.99;64.00;98559.06;5023744;28;20032;-65
2021/09/17 10:51:06;;;;;;;14.30;6.05;;;;;;;21.89;62.14;98552.59;5023888;28;20026;-65
2021/09/17 10:53:41;;;;;;;8.23;4.57;;;;;;;21.78;61.36;98559.63;5023434;28;20046;-65
2021/09/17 10:56:11;;;;;;;7.13;5.10;;;;;;;21.42;60.26;98553.94;5023882;28;20033;-65
2021/09/17 10:58:38;;;;;;;9.55;4.03;;;;;;;21.80;61.60;98549.69;5006152;28;20025;-65
2021/09/17 11:01:07;;;;;;;7.30;3.90;;;;;;;22.21;61.13;98542.44;5023636;28;20312;-65
2021/09/17 11:03:35;;;;;;;5.10;3.78;;;;;;;22.63;60.74;98544.88;5023358;28;20030;-65
2021/09/17 11:06:22;;;;;;;7.80;3.90;;;;;;;22.94;58.88;98541.78;5023258;28;20310;-65
2021/09/17 11:08:50;;;;;;;11.88;4.80;;;;;;;22.14;60.75;98546.47;5022697;28;20225;-65
2021/09/17 11:11:32;;;;;;;6.55;3.63;;;;;;;22.44;62.60;98541.72;5017683;28;20021;-65
2021/09/17 11:14:00;;;;;;;7.82;3.83;;;;;;;22.29;61.90;98534.72;5023234;28;20025;-65
2021/09/17 11:16:27;;;;;;;7.88;4.03;;;;;;;21.97;60.11;98538.69;5023314;28;20025;-65
2021/09/17 11:19:00;;;;;;;9.65;3.85;;;;;;;21.59;61.25;98535.84;5023158;28;20010;-65
2021/09/17 11:21:31;;;;;;;7.57;4.25;;;;;;;21.28;63.52;98539.63;5023202;28;20025;-65
2021/09/17 11:23:57;;;;;;;5.53;3.67;;;;;;;21.60;63.60;98534.00;5005877;28;20022;-65